OMAD METAR and TAF | Updated Today

OMAD METAR

Bateen Airport

Observation time: 57 min. ago

OMAD 011500Z 16004KT 130V200 CAVOK 26/07 Q1015 NOSIG

Need help? Read our tutorial on how to read METARs or read the parsed version below.

Bateen Airport (OMAD) METAR

  • Weather conditions on Wed, 01 Feb 2023 15:00:00 +0000 (57 min. ago):
  • Present conditions: Dry
  • Clouds: Clear skies
  • Visibility: Greater than 10 km
  • Wind: 160 degrees at 4 knots
  • Temperature: 26 celsius
  • Dew point: 7 celsius
  • Pressure: 1015 millibars
  • Remarks: None


Useful to know...

OMAD TAF

Bateen Airport

TAF OMAD 011100Z 0112/0218 17014KT 8000 NSC BECMG 0114/0116 09006KT BECMG 0203/0205 17013KT BECMG 0213/0215 36008KT
Observation time: 4:57 hr. ago
Need help? Read our tutorial on how to read TAFs or read the parsed version below.

Parsed version of TAF for Bateen Airport (OMAD)

  • From 01 February at 12:00 UTC, to day 02 of the month at 18:00 UTC
  • Clouds: No significant clouds are observed
  • Visibility: 8000 meters
  • Wind: 170 degrees at 14
  • Expected to arise soon, from 01 February at 14:00 UTC, to day 01 of the month at 16:00 UTC
  • Wind: 90 degrees at 6
  • Expected to arise soon, from 02 February at 03:00 UTC, to day 02 of the month at 05:00 UTC
  • Wind: 170 degrees at 13
  • Expected to arise soon, from 02 February at 13:00 UTC, to day 02 of the month at 15:00 UTC
  • Wind: 360 degrees at 8